Time;durP1;ratioP1;P1;durP2;ratioP2;P2;SDS_P1;SDS_P2;PMS_P1;PMS_P2;Temp;Humidity;BMP_temperature;BMP_pressure;BME280_temperature;BME280_humidity;BME280_pressure;Samples;Min_cycle;Max_cycle;Signal;HPM_P1;HPM_P2
2021/12/31 00:02:18;;;;;;;2.92;1.50;;;11.40;99.90;;;;;;5036907;28;20021;-52
2021/12/31 00:04:44;;;;;;;1.55;1.45;;;11.40;99.90;;;;;;5038233;28;20032;-54
2021/12/31 00:07:10;;;;;;;2.58;1.60;;;11.40;99.90;;;;;;5037393;28;20036;-54
2021/12/31 00:09:36;;;;;;;1.67;1.58;;;11.50;99.90;;;;;;5036980;28;20114;-54
2021/12/31 00:12:03;;;;;;;4.05;1.60;;;11.40;99.90;;;;;;5037290;28;20029;-52
2021/12/31 00:14:30;;;;;;;1.70;1.60;;;11.50;99.90;;;;;;5036511;28;20271;-57
2021/12/31 00:16:56;;;;;;;1.98;1.77;;;11.50;99.90;;;;;;5038292;28;20025;-52
2021/12/31 00:19:22;;;;;;;2.35;2.10;;;11.50;99.90;;;;;;5037905;28;20037;-53
2021/12/31 00:21:50;;;;;;;4.57;2.20;;;11.50;99.90;;;;;;5037264;28;20396;-52
2021/12/31 00:24:15;;;;;;;2.38;2.17;;;11.50;99.90;;;;;;5037764;28;20025;-48
2021/12/31 00:26:41;;;;;;;2.85;2.33;;;11.50;99.90;;;;;;5038865;28;20056;-53
2021/12/31 00:29:06;;;;;;;2.30;2.10;;;11.60;99.90;;;;;;5026480;28;20039;-53
2021/12/31 00:31:32;;;;;;;3.10;2.50;;;11.60;99.90;;;;;;5038342;28;20091;-52
2021/12/31 00:33:58;;;;;;;3.00;2.67;;;11.60;99.90;;;;;;5037722;28;20075;-51
2021/12/31 00:36:41;;;;;;;3.55;2.45;;;11.60;99.90;;;;;;5036817;28;20103;-48
2021/12/31 00:39:07;;;;;;;4.15;2.78;;;11.60;99.90;;;;;;5036742;28;20026;-53
2021/12/31 00:41:32;;;;;;;6.10;2.47;;;11.60;99.90;;;;;;5037546;28;20025;-56
2021/12/31 00:43:59;;;;;;;8.40;2.55;;;11.60;99.90;;;;;;5036979;28;20116;-50
2021/12/31 00:46:24;;;;;;;3.75;2.33;;;11.60;99.90;;;;;;5038270;28;20414;-52
2021/12/31 00:48:50;;;;;;;4.28;2.42;;;11.60;99.90;;;;;;5036797;28;20029;-50
2021/12/31 00:51:15;;;;;;;2.67;2.40;;;11.60;99.90;;;;;;5037855;28;20031;-48
2021/12/31 00:53:41;;;;;;;3.45;2.65;;;11.60;99.90;;;;;;5037081;28;20037;-52
2021/12/31 00:56:06;;;;;;;4.78;2.95;;;11.60;99.90;;;;;;5037046;28;20028;-50
2021/12/31 00:58:32;;;;;;;4.95;2.78;;;11.60;99.90;;;;;;5036458;28;20025;-55
2021/12/31 01:00:57;;;;;;;4.22;2.72;;;11.70;99.90;;;;;;5036451;28;20542;-55
2021/12/31 01:03:23;;;;;;;3.65;2.85;;;11.60;99.90;;;;;;5036562;28;20041;-52
2021/12/31 01:05:49;;;;;;;4.72;3.08;;;11.60;99.90;;;;;;5037828;28;20030;-50
2021/12/31 01:08:14;;;;;;;3.67;3.10;;;11.70;99.90;;;;;;5037280;28;20120;-51
2021/12/31 01:10:40;;;;;;;4.18;3.22;;;11.70;99.90;;;;;;5037494;28;20025;-56
2021/12/31 01:13:10;;;;;;;4.97;3.25;;;11.60;99.90;;;;;;5037482;28;20480;-56
2021/12/31 01:15:41;;;;;;;4.95;4.15;;;11.70;99.90;;;;;;5037793;28;20096;-52
2021/12/31 01:20:35;;;;;;;9.23;5.07;;;11.70;99.90;;;;;;5037139;28;20030;-51
2021/12/31 01:23:02;;;;;;;5.10;4.43;;;11.70;99.90;;;;;;5033007;28;20109;-55
2021/12/31 01:25:29;;;;;;;6.82;4.38;;;11.60;99.90;;;;;;5037147;28;20032;-57
2021/12/31 01:27:55;;;;;;;8.18;4.97;;;11.60;99.90;;;;;;5037624;28;20021;-53
2021/12/31 01:30:21;;;;;;;8.68;5.10;;;11.60;99.90;;;;;;5036572;28;20086;-54
2021/12/31 01:32:46;;;;;;;8.20;4.70;;;11.60;99.90;;;;;;5037263;28;20033;-53
2021/12/31 01:35:13;;;;;;;9.07;5.40;;;11.60;99.90;;;;;;5037796;28;20033;-55
2021/12/31 01:37:38;;;;;;;9.00;4.90;;;11.60;99.90;;;;;;5036249;28;20099;-56
2021/12/31 01:40:05;;;;;;;9.15;4.85;;;11.70;99.90;;;;;;5037145;28;20063;-56
2021/12/31 01:42:33;;;;;;;6.90;4.15;;;11.70;99.90;;;;;;5039419;28;20029;-53
2021/12/31 01:45:18;;;;;;;8.50;4.82;;;11.60;99.90;;;;;;5039893;28;20021;-54
2021/12/31 01:50:28;;;;;;;8.07;4.93;;;11.60;99.90;;;;;;5040687;28;20067;-48
2021/12/31 01:52:54;;;;;;;9.32;5.75;;;11.70;99.90;;;;;;5039777;28;20074;-55
2021/12/31 01:55:22;;;;;;;8.75;5.10;;;11.60;99.90;;;;;;5040212;28;20017;-48
2021/12/31 01:57:48;;;;;;;8.38;5.03;;;11.70;99.90;;;;;;5039027;28;20021;-52
2021/12/31 02:00:15;;;;;;;7.90;4.75;;;11.60;99.90;;;;;;5027708;28;20116;-50
2021/12/31 02:02:44;;;;;;;8.77;6.07;;;11.60;99.90;;;;;;5038370;28;20033;-52
2021/12/31 02:05:11;;;;;;;6.82;4.53;;;11.70;99.90;;;;;;5039823;28;20029;-54
2021/12/31 02:07:37;;;;;;;8.57;5.03;;;11.60;99.90;;;;;;5040404;28;20499;-49
2021/12/31 02:10:04;;;;;;;12.15;5.18;;;11.70;99.90;;;;;;5040438;28;20317;-52
2021/12/31 02:12:29;;;;;;;8.93;4.07;;;11.70;99.90;;;;;;5041593;28;20025;-52
2021/12/31 02:14:56;;;;;;;8.40;4.60;;;11.60;99.90;;;;;;5025205;28;20396;-56
2021/12/31 02:17:21;;;;;;;10.93;4.55;;;11.70;99.90;;;;;;5040530;28;20021;-54
2021/12/31 02:19:59;;;;;;;7.43;5.13;;;11.70;99.90;;;;;;5040422;28;20537;-53
2021/12/31 02:22:27;;;;;;;12.18;4.93;;;11.70;99.90;;;;;;5040051;28;20646;-48
2021/12/31 02:24:55;;;;;;;10.48;4.68;;;11.70;99.90;;;;;;5039916;28;20037;-51
2021/12/31 02:27:21;;;;;;;12.10;4.55;;;11.70;99.90;;;;;;5040119;28;20043;-55
2021/12/31 02:29:47;;;;;;;14.55;5.20;;;11.60;99.90;;;;;;5039401;28;20488;-55
2021/12/31 02:32:12;;;;;;;9.55;4.95;;;11.60;99.90;;;;;;5040580;28;20053;-52
2021/12/31 02:34:38;;;;;;;11.80;5.50;;;11.60;99.90;;;;;;5063372;22;20139;-59
2021/12/31 02:37:03;;;;;;;12.27;4.88;;;11.60;99.90;;;;;;5056075;28;20498;-58
2021/12/31 02:39:29;;;;;;;14.45;5.93;;;11.60;99.90;;;;;;5055997;28;20458;-59
2021/12/31 02:41:54;;;;;;;9.02;4.85;;;11.60;99.90;;;;;;5054170;28;20033;-56
2021/12/31 02:44:20;;;;;;;18.25;5.68;;;11.60;99.90;;;;;;5055606;28;20068;-58
2021/12/31 02:46:46;;;;;;;10.93;5.18;;;11.50;99.90;;;;;;5057617;28;20059;-59
2021/12/31 02:49:11;;;;;;;11.15;5.85;;;11.60;99.90;;;;;;5056643;28;20478;-59
2021/12/31 02:51:37;;;;;;;16.38;5.43;;;11.60;99.90;;;;;;5039532;28;20029;-57
2021/12/31 02:54:09;;;;;;;14.23;4.82;;;11.60;99.90;;;;;;5056579;28;20563;-59
2021/12/31 02:56:35;;;;;;;9.95;5.60;;;11.50;99.90;;;;;;5055181;28;20486;-59
2021/12/31 02:59:01;;;;;;;11.25;5.55;;;11.50;99.90;;;;;;5050197;28;20036;-56
2021/12/31 03:01:27;;;;;;;9.57;5.57;;;11.50;99.90;;;;;;5052699;28;20563;-58
2021/12/31 03:03:55;;;;;;;11.65;4.75;;;11.50;99.90;;;;;;5058987;28;20028;-59
2021/12/31 03:06:21;;;;;;;14.55;4.75;;;11.50;99.90;;;;;;5030633;28;20511;-58
2021/12/31 03:08:50;;;;;;;13.82;4.72;;;11.50;99.90;;;;;;5056066;28;20027;-57
2021/12/31 03:11:19;;;;;;;12.20;5.25;;;11.50;99.90;;;;;;5053912;28;20040;-59
2021/12/31 03:13:49;;;;;;;18.63;6.15;;;11.50;99.90;;;;;;5057446;28;20033;-58
2021/12/31 03:16:15;;;;;;;13.77;5.13;;;11.50;99.90;;;;;;5055535;28;20026;-57
2021/12/31 03:18:41;;;;;;;6.45;4.25;;;11.50;99.90;;;;;;5054242;28;20116;-58
2021/12/31 03:21:20;;;;;;;11.23;4.35;;;11.50;99.90;;;;;;5054040;28;20028;-58
2021/12/31 03:23:46;;;;;;;11.07;5.05;;;11.50;99.90;;;;;;5040160;28;20032;-58
2021/12/31 03:26:11;;;;;;;9.23;4.38;;;11.50;99.90;;;;;;5057552;28;20380;-58
2021/12/31 03:28:37;;;;;;;13.10;5.25;;;11.50;99.90;;;;;;5053622;28;20029;-58
2021/12/31 03:31:03;;;;;;;9.73;3.97;;;11.50;99.90;;;;;;5052254;28;20037;-57
2021/12/31 03:33:28;;;;;;;8.77;4.78;;;11.50;99.90;;;;;;5054736;28;20032;-57
2021/12/31 03:35:54;;;;;;;11.52;4.15;;;11.50;99.90;;;;;;5056998;28;20020;-59
2021/12/31 03:38:20;;;;;;;14.27;5.07;;;11.50;99.90;;;;;;5037140;28;20029;-58
2021/12/31 03:40:47;;;;;;;6.65;3.53;;;11.50;99.90;;;;;;5038477;28;20104;-59
2021/12/31 03:43:12;;;;;;;10.05;3.97;;;11.50;99.90;;;;;;5054808;28;20053;-59
2021/12/31 03:45:40;;;;;;;9.40;3.63;;;11.50;99.90;;;;;;5056498;28;20071;-58
2021/12/31 03:48:06;;;;;;;14.15;4.80;;;11.50;99.90;;;;;;5055236;28;20421;-59
2021/12/31 03:50:32;;;;;;;7.90;3.78;;;11.50;99.90;;;;;;5057291;28;20044;-59
2021/12/31 03:52:57;;;;;;;7.85;4.00;;;11.50;99.90;;;;;;5051681;28;20546;-59
2021/12/31 03:55:23;;;;;;;8.80;3.67;;;11.50;99.90;;;;;;5056256;28;20375;-57
2021/12/31 03:57:49;;;;;;;11.32;3.92;;;11.40;99.90;;;;;;5053220;28;20029;-59
2021/12/31 04:00:15;;;;;;;7.60;3.83;;;11.50;99.90;;;;;;5055274;28;20268;-59
2021/12/31 04:02:41;;;;;;;9.85;3.83;;;11.50;99.90;;;;;;5056453;28;20040;-59
2021/12/31 04:05:07;;;;;;;9.77;4.28;;;11.50;99.90;;;;;;5055550;28;20021;-58
2021/12/31 04:07:33;;;;;;;8.60;3.85;;;11.50;99.90;;;;;;5039208;28;20407;-59
2021/12/31 04:09:59;;;;;;;7.70;3.13;;;11.50;99.90;;;;;;5052557;28;20017;-58
2021/12/31 04:12:25;;;;;;;7.65;3.50;;;11.50;99.90;;;;;;5055143;28;20452;-59
2021/12/31 04:14:50;;;;;;;9.45;3.92;;;11.50;99.90;;;;;;5055523;28;20025;-57
2021/12/31 04:17:16;;;;;;;7.68;2.90;;;11.50;99.90;;;;;;5056274;28;20029;-58
2021/12/31 04:19:42;;;;;;;11.05;3.72;;;11.50;99.90;;;;;;5037427;28;20073;-59
2021/12/31 04:22:11;;;;;;;10.82;3.85;;;11.40;99.90;;;;;;5051644;28;20067;-58
2021/12/31 04:27:09;;;;;;;8.88;4.00;;;11.40;99.90;;;;;;5055389;28;20457;-59
2021/12/31 04:29:34;;;;;;;9.10;4.10;;;11.40;99.90;;;;;;5054436;28;20221;-58
2021/12/31 04:32:01;;;;;;;8.95;3.97;;;11.50;99.90;;;;;;5054549;28;20436;-58
2021/12/31 04:34:27;;;;;;;8.90;4.28;;;11.50;99.90;;;;;;5056467;28;20075;-57
2021/12/31 04:36:53;;;;;;;8.48;3.40;;;11.50;99.90;;;;;;5053223;28;20037;-59
2021/12/31 04:39:19;;;;;;;5.00;3.63;;;11.50;99.90;;;;;;5051893;28;20021;-59
2021/12/31 04:41:45;;;;;;;8.32;3.60;;;11.50;99.90;;;;;;5053458;28;20066;-59
2021/12/31 04:44:10;;;;;;;12.27;3.50;;;11.50;99.90;;;;;;5056511;28;20036;-59
2021/12/31 04:46:36;;;;;;;7.90;3.38;;;11.50;99.90;;;;;;5051962;28;20025;-57
2021/12/31 04:49:02;;;;;;;7.32;3.35;;;11.50;99.90;;;;;;5055165;28;20424;-58
2021/12/31 04:51:27;;;;;;;7.40;3.67;;;11.50;99.90;;;;;;5056020;28;20033;-58
2021/12/31 04:53:53;;;;;;;7.78;3.42;;;11.50;99.90;;;;;;5054371;28;20399;-58
2021/12/31 04:56:19;;;;;;;5.55;2.80;;;11.50;99.90;;;;;;5054269;28;20020;-59
2021/12/31 04:58:44;;;;;;;6.57;3.25;;;11.50;99.90;;;;;;5054211;28;20016;-58
2021/12/31 05:01:10;;;;;;;10.20;3.22;;;11.50;99.90;;;;;;5055352;28;20028;-57
2021/12/31 05:03:36;;;;;;;8.75;3.58;;;11.40;99.90;;;;;;5055434;28;20507;-56
2021/12/31 05:06:01;;;;;;;10.73;4.20;;;11.50;99.90;;;;;;5051416;28;20127;-58
2021/12/31 05:08:27;;;;;;;9.88;3.13;;;11.50;99.90;;;;;;5036431;28;20487;-58
2021/12/31 05:10:52;;;;;;;15.85;4.18;;;11.50;99.90;;;;;;5053903;28;20025;-56
2021/12/31 05:13:19;;;;;;;10.43;3.55;;;11.50;99.90;;;;;;5050867;28;20025;-54
2021/12/31 05:15:48;;;;;;;5.75;3.10;;;11.50;99.90;;;;;;5036782;28;20376;-59
2021/12/31 05:18:14;;;;;;;7.63;3.38;;;11.50;99.90;;;;;;5055492;28;20017;-58
2021/12/31 05:20:40;;;;;;;6.05;2.88;;;11.50;99.90;;;;;;5056999;28;20035;-58
2021/12/31 05:23:06;;;;;;;14.35;3.55;;;11.50;99.90;;;;;;5060080;28;20115;-57
2021/12/31 05:25:32;;;;;;;8.02;3.20;;;11.50;99.90;;;;;;5060621;28;20044;-59
2021/12/31 05:27:57;;;;;;;9.30;3.05;;;11.50;99.90;;;;;;5059350;28;20388;-59
2021/12/31 05:30:25;;;;;;;6.72;2.92;;;11.50;99.90;;;;;;5041381;28;20090;-58
2021/12/31 05:32:51;;;;;;;8.88;3.55;;;11.50;99.90;;;;;;5055212;28;20383;-55
2021/12/31 05:35:17;;;;;;;9.07;3.53;;;11.50;99.90;;;;;;5059122;28;20048;-57
2021/12/31 05:37:43;;;;;;;9.02;3.35;;;11.50;99.90;;;;;;5059769;28;20060;-59
2021/12/31 05:40:09;;;;;;;7.93;3.75;;;11.50;99.90;;;;;;5056704;28;20100;-57
2021/12/31 05:42:34;;;;;;;7.70;3.83;;;11.50;99.90;;;;;;5058728;28;20025;-58
2021/12/31 05:45:00;;;;;;;10.50;3.42;;;11.50;99.90;;;;;;5059593;28;20075;-60
2021/12/31 05:47:26;;;;;;;5.90;3.08;;;11.50;99.90;;;;;;5056732;28;20025;-57
2021/12/31 05:49:52;;;;;;;8.23;3.65;;;11.50;99.90;;;;;;5023597;28;20025;-58
2021/12/31 05:52:17;;;;;;;8.60;3.05;;;11.50;99.90;;;;;;5057684;28;20028;-57
2021/12/31 05:54:43;;;;;;;7.88;3.42;;;11.50;99.90;;;;;;5057775;28;20026;-55
2021/12/31 05:57:09;;;;;;;10.18;3.75;;;11.60;99.90;;;;;;5056071;28;20115;-57
2021/12/31 05:59:34;;;;;;;8.00;4.25;;;11.50;99.90;;;;;;5057291;28;20112;-59
2021/12/31 06:02:00;;;;;;;10.40;3.67;;;11.60;99.90;;;;;;5040183;28;20029;-57
2021/12/31 06:04:25;;;;;;;7.90;3.25;;;11.50;99.90;;;;;;5057317;28;20024;-56
2021/12/31 06:06:51;;;;;;;8.30;3.50;;;11.50;99.90;;;;;;5057160;28;20028;-58
2021/12/31 06:09:17;;;;;;;6.40;3.08;;;11.50;99.90;;;;;;5057257;28;20032;-59
2021/12/31 06:11:43;;;;;;;6.35;2.97;;;11.50;99.90;;;;;;5056689;28;20025;-59
2021/12/31 06:14:10;;;;;;;8.63;3.50;;;11.50;99.90;;;;;;5058380;28;20546;-59
2021/12/31 06:16:41;;;;;;;8.07;3.42;;;11.50;99.90;;;;;;5053862;28;20368;-58
2021/12/31 06:19:11;;;;;;;8.35;3.22;;;11.50;99.90;;;;;;5056920;28;20448;-58
2021/12/31 06:21:39;;;;;;;10.13;3.60;;;11.50;99.90;;;;;;5059263;28;20112;-59
2021/12/31 06:24:06;;;;;;;6.80;3.10;;;11.50;99.90;;;;;;5058513;28;20037;-59
2021/12/31 06:26:31;;;;;;;8.50;3.97;;;11.50;99.90;;;;;;5053864;28;20460;-59
2021/12/31 06:28:57;;;;;;;7.47;3.63;;;11.50;99.90;;;;;;5053846;28;20104;-58
2021/12/31 06:31:23;;;;;;;5.82;3.33;;;11.60;99.90;;;;;;5059621;28;20046;-59
2021/12/31 06:33:49;;;;;;;8.23;3.65;;;11.60;99.90;;;;;;5056773;28;20031;-58
2021/12/31 06:36:15;;;;;;;8.75;4.07;;;11.60;99.90;;;;;;5056747;28;20429;-58
2021/12/31 06:38:42;;;;;;;7.43;3.88;;;11.60;99.90;;;;;;5057073;28;20025;-57
2021/12/31 06:41:08;;;;;;;8.45;4.05;;;11.60;99.90;;;;;;5056473;28;20107;-58
2021/12/31 06:43:33;;;;;;;9.30;3.83;;;11.60;99.90;;;;;;5055159;28;20112;-58
2021/12/31 06:45:59;;;;;;;7.55;4.32;;;11.50;99.90;;;;;;5040052;28;20480;-59
2021/12/31 06:48:24;;;;;;;7.20;4.45;;;11.50;99.90;;;;;;5039618;28;20053;-58
2021/12/31 06:50:50;;;;;;;6.50;5.35;;;11.50;99.90;;;;;;5057143;28;20021;-58
2021/12/31 06:53:15;;;;;;;8.77;4.40;;;11.60;99.90;;;;;;5038728;28;20045;-55
2021/12/31 06:55:41;;;;;;;7.22;4.13;;;11.60;99.90;;;;;;5055583;28;20106;-57
2021/12/31 06:58:07;;;;;;;9.88;4.40;;;11.50;99.90;;;;;;5056959;28;20013;-58
2021/12/31 07:00:32;;;;;;;10.32;5.25;;;11.50;99.90;;;;;;5048560;28;20407;-57
2021/12/31 07:03:04;;;;;;;7.57;5.13;;;11.50;99.90;;;;;;5059409;28;20432;-60
2021/12/31 07:05:30;;;;;;;6.90;4.80;;;11.50;99.90;;;;;;5051008;28;20503;-54
2021/12/31 07:07:55;;;;;;;6.35;4.97;;;11.50;99.90;;;;;;5050888;28;20033;-55
2021/12/31 07:10:21;;;;;;;10.13;5.55;;;11.50;99.90;;;;;;5057978;28;20044;-58
2021/12/31 07:12:46;;;;;;;11.30;5.65;;;11.60;99.90;;;;;;5031204;28;20036;-58
2021/12/31 07:15:12;;;;;;;7.97;5.63;;;11.60;99.90;;;;;;5050170;28;20024;-59
2021/12/31 07:17:38;;;;;;;8.48;5.45;;;11.60;99.90;;;;;;5056245;28;20028;-56
2021/12/31 07:20:04;;;;;;;6.03;5.43;;;11.50;99.90;;;;;;5056875;28;20028;-56
2021/12/31 07:22:32;;;;;;;8.35;6.38;;;11.50;99.90;;;;;;5056816;28;20025;-56
2021/12/31 07:24:58;;;;;;;7.13;5.63;;;11.50;99.90;;;;;;5054182;28;20092;-58
2021/12/31 07:27:23;;;;;;;11.52;6.22;;;11.50;99.90;;;;;;5055530;28;20127;-58
2021/12/31 07:29:49;;;;;;;11.30;6.13;;;11.60;99.90;;;;;;5056121;28;20028;-58
2021/12/31 07:32:14;;;;;;;12.18;6.65;;;11.60;99.90;;;;;;5040778;28;20033;-57
2021/12/31 07:34:40;;;;;;;7.13;6.47;;;11.60;99.90;;;;;;5057322;28;20107;-55
2021/12/31 07:37:05;;;;;;;7.22;5.57;;;11.60;99.90;;;;;;5051980;28;20025;-59
2021/12/31 07:39:33;;;;;;;9.93;6.13;;;11.60;99.90;;;;;;5050475;28;20041;-59
2021/12/31 07:41:58;;;;;;;8.93;6.72;;;11.60;99.90;;;;;;5053891;28;20029;-57
2021/12/31 07:44:24;;;;;;;8.23;5.30;;;11.70;99.90;;;;;;5057305;28;20040;-58
2021/12/31 07:46:49;;;;;;;6.15;5.45;;;11.60;99.90;;;;;;5040718;28;20052;-56
2021/12/31 07:49:15;;;;;;;7.18;5.55;;;11.70;99.90;;;;;;5054683;28;20033;-59
2021/12/31 07:51:40;;;;;;;9.40;6.20;;;11.70;99.90;;;;;;5047936;28;20411;-59
2021/12/31 07:54:06;;;;;;;9.52;5.97;;;11.70;99.90;;;;;;5046239;28;20024;-59
2021/12/31 07:56:31;;;;;;;7.78;5.50;;;11.70;99.90;;;;;;5037702;28;20029;-57
2021/12/31 07:58:57;;;;;;;5.93;5.32;;;11.80;99.90;;;;;;5053748;28;20147;-59
2021/12/31 08:01:22;;;;;;;7.32;5.40;;;11.80;99.90;;;;;;5056901;28;20097;-57
2021/12/31 08:03:48;;;;;;;7.00;5.00;;;11.80;99.90;;;;;;5037168;28;20512;-57
2021/12/31 08:06:14;;;;;;;9.15;5.53;;;11.80;99.90;;;;;;5055383;28;20485;-57
2021/12/31 08:08:39;;;;;;;6.47;5.18;;;11.80;99.90;;;;;;5053642;28;20108;-57
2021/12/31 08:11:05;;;;;;;8.20;5.53;;;11.80;99.90;;;;;;5053572;28;20017;-57
2021/12/31 08:13:30;;;;;;;5.88;4.72;;;11.80;99.90;;;;;;5053395;28;20034;-55
2021/12/31 08:15:56;;;;;;;6.80;4.72;;;11.90;99.90;;;;;;5053063;28;20016;-59
2021/12/31 08:18:22;;;;;;;6.68;4.95;;;11.80;99.90;;;;;;5052698;28;20033;-57
2021/12/31 08:20:48;;;;;;;6.07;5.03;;;11.80;99.90;;;;;;5053834;28;20028;-54
2021/12/31 08:23:14;;;;;;;6.63;4.88;;;11.80;99.90;;;;;;5057278;28;20487;-58
2021/12/31 08:25:40;;;;;;;7.93;5.18;;;11.80;99.90;;;;;;5054218;28;20035;-55
2021/12/31 08:28:06;;;;;;;8.65;5.35;;;11.90;99.90;;;;;;5054211;28;20102;-56
2021/12/31 08:30:32;;;;;;;8.13;5.43;;;11.80;99.90;;;;;;5052376;28;20028;-55
2021/12/31 08:32:58;;;;;;;9.05;5.60;;;11.90;99.90;;;;;;5054252;28;20054;-57
2021/12/31 08:37:51;;;;;;;8.60;5.53;;;11.80;99.90;;;;;;5025745;28;20056;-52
2021/12/31 08:40:17;;;;;;;6.13;5.53;;;11.80;99.90;;;;;;5028397;28;20013;-53
2021/12/31 08:42:42;;;;;;;6.90;5.30;;;11.80;99.90;;;;;;5028368;28;20513;-50
2021/12/31 08:45:08;;;;;;;10.48;5.75;;;11.90;99.90;;;;;;5028681;28;20014;-49
2021/12/31 08:47:34;;;;;;;5.80;5.22;;;11.80;99.90;;;;;;5028664;28;20022;-54
2021/12/31 08:50:00;;;;;;;6.53;5.47;;;11.90;99.90;;;;;;5028413;28;20148;-52
2021/12/31 08:52:25;;;;;;;9.75;5.60;;;11.90;99.90;;;;;;5028806;28;20175;-51
2021/12/31 08:54:51;;;;;;;11.45;5.90;;;11.90;99.90;;;;;;5028016;28;20025;-50
2021/12/31 08:57:17;;;;;;;8.48;5.35;;;11.90;99.90;;;;;;5028071;28;20026;-50
2021/12/31 08:59:43;;;;;;;7.65;5.53;;;11.90;99.90;;;;;;5028058;28;20028;-50
2021/12/31 09:02:09;;;;;;;6.15;5.30;;;11.90;99.90;;;;;;5028860;28;20498;-55
2021/12/31 09:04:35;;;;;;;8.40;5.00;;;12.00;99.90;;;;;;5027675;28;20029;-48
2021/12/31 09:07:01;;;;;;;6.88;5.20;;;12.00;99.90;;;;;;5028770;28;20025;-53
2021/12/31 09:09:26;;;;;;;8.82;5.18;;;12.00;99.90;;;;;;5028739;28;20040;-57
2021/12/31 09:11:54;;;;;;;6.18;5.20;;;12.00;99.90;;;;;;5026825;28;20041;-52
2021/12/31 09:14:20;;;;;;;6.88;5.28;;;12.10;99.90;;;;;;5028143;28;20029;-53
2021/12/31 09:16:47;;;;;;;5.97;4.35;;;12.10;99.90;;;;;;5027854;28;20040;-54
2021/12/31 09:19:13;;;;;;;6.40;4.13;;;12.10;99.90;;;;;;5029004;28;20024;-55
2021/12/31 09:21:39;;;;;;;9.40;5.45;;;12.10;99.90;;;;;;5027691;28;20060;-54
2021/12/31 09:24:05;;;;;;;6.78;4.57;;;12.10;99.90;;;;;;5027445;28;20025;-56
2021/12/31 09:26:31;;;;;;;9.23;4.90;;;12.20;99.90;;;;;;5026969;28;20029;-54
2021/12/31 09:28:57;;;;;;;5.50;4.28;;;12.10;99.90;;;;;;5027319;28;20041;-56
2021/12/31 09:31:22;;;;;;;4.90;4.00;;;12.20;99.90;;;;;;5027114;28;20030;-52
2021/12/31 09:33:48;;;;;;;7.30;4.25;;;12.10;99.90;;;;;;5027421;28;20072;-54
2021/12/31 09:36:14;;;;;;;6.38;4.07;;;12.20;99.90;;;;;;5025446;28;20018;-55
2021/12/31 09:38:39;;;;;;;5.70;4.25;;;12.20;99.90;;;;;;5021587;28;20028;-56
2021/12/31 09:41:05;;;;;;;4.55;3.40;;;12.20;99.90;;;;;;5025359;28;20033;-55
2021/12/31 09:43:31;;;;;;;8.32;4.05;;;12.30;99.90;;;;;;5026355;28;20116;-52
2021/12/31 09:45:56;;;;;;;5.40;3.80;;;12.30;99.90;;;;;;5027086;28;20068;-55
2021/12/31 09:48:24;;;;;;;5.57;3.20;;;12.30;99.90;;;;;;5027443;28;20029;-55
2021/12/31 09:50:56;;;;;;;4.10;2.97;;;12.30;99.90;;;;;;5026082;28;20045;-56
2021/12/31 09:53:24;;;;;;;5.85;3.00;;;12.30;99.90;;;;;;5021669;28;20036;-55
2021/12/31 09:55:55;;;;;;;5.18;3.40;;;12.40;99.90;;;;;;5026854;28;20014;-57
2021/12/31 09:58:24;;;;;;;3.45;2.97;;;12.40;99.90;;;;;;5026845;28;20394;-50
2021/12/31 10:00:53;;;;;;;5.30;3.45;;;12.40;99.90;;;;;;5023809;28;20084;-54
2021/12/31 10:03:28;;;;;;;5.15;3.30;;;12.40;99.90;;;;;;5028128;28;20490;-54
2021/12/31 10:05:56;;;;;;;5.10;3.08;;;12.40;99.90;;;;;;5030427;28;20021;-54
2021/12/31 10:08:24;;;;;;;6.32;3.22;;;12.40;99.90;;;;;;5030936;28;20021;-56
2021/12/31 10:11:17;;;;;;;5.03;3.20;;;12.30;99.90;;;;;;5004820;28;20029;-57
2021/12/31 10:13:44;;;;;;;4.30;3.00;;;12.30;99.90;;;;;;5028347;28;20022;-53
2021/12/31 10:16:29;;;;;;;3.97;3.08;;;12.30;99.90;;;;;;5031389;28;20391;-52
2021/12/31 10:19:08;;;;;;;3.55;3.00;;;12.30;99.90;;;;;;5025801;28;20049;-55
2021/12/31 10:21:44;;;;;;;5.10;2.67;;;12.30;99.90;;;;;;5029985;28;20033;-54
2021/12/31 10:24:32;;;;;;;6.03;3.00;;;12.30;99.90;;;;;;5005202;28;20488;-53
2021/12/31 10:27:20;;;;;;;5.40;2.60;;;12.40;99.90;;;;;;5027739;28;20020;-53
2021/12/31 10:29:52;;;;;;;3.42;2.60;;;12.40;99.90;;;;;;5028476;28;20021;-54
2021/12/31 10:32:18;;;;;;;2.47;2.28;;;12.40;99.90;;;;;;5029014;28;20022;-54
2021/12/31 10:34:44;;;;;;;2.95;2.35;;;12.40;99.90;;;;;;5026976;28;20054;-54
2021/12/31 10:37:14;;;;;;;3.83;2.83;;;12.40;99.90;;;;;;5028376;28;20061;-53
2021/12/31 10:39:40;;;;;;;4.32;2.63;;;12.40;99.90;;;;;;5021744;28;20132;-53
2021/12/31 10:42:10;;;;;;;3.42;2.85;;;12.40;99.90;;;;;;5022418;28;20076;-55
2021/12/31 10:44:53;;;;;;;5.32;3.40;;;12.50;99.90;;;;;;5029497;28;20582;-52
2021/12/31 10:47:23;;;;;;;4.15;2.30;;;12.40;99.90;;;;;;5023891;28;20037;-54
2021/12/31 10:50:03;;;;;;;4.40;2.53;;;12.40;99.90;;;;;;5026193;28;20025;-53
2021/12/31 10:52:54;;;;;;;3.72;2.60;;;12.50;99.90;;;;;;5028462;28;20438;-50
2021/12/31 10:55:29;;;;;;;7.70;3.53;;;12.50;99.90;;;;;;5018358;28;20037;-54
2021/12/31 10:58:04;;;;;;;6.55;2.97;;;12.50;99.90;;;;;;5027218;28;20029;-49
2021/12/31 11:00:39;;;;;;;4.68;3.35;;;12.40;99.90;;;;;;5003614;28;20026;-54
2021/12/31 11:03:05;;;;;;;5.15;2.45;;;12.40;99.90;;;;;;5025484;28;20079;-49
2021/12/31 11:05:32;;;;;;;6.22;3.00;;;12.40;99.90;;;;;;5003391;28;20036;-48
2021/12/31 11:08:00;;;;;;;3.78;3.05;;;12.40;99.90;;;;;;5028706;28;20028;-51
2021/12/31 11:10:28;;;;;;;4.30;2.90;;;12.40;99.90;;;;;;5021165;28;20097;-55
2021/12/31 11:12:54;;;;;;;4.07;2.60;;;12.40;99.90;;;;;;5022636;28;20120;-54
2021/12/31 11:15:20;;;;;;;5.13;3.05;;;12.40;99.90;;;;;;5027909;28;20021;-55
2021/12/31 11:17:48;;;;;;;6.78;2.65;;;12.40;99.90;;;;;;5026848;28;20502;-53
2021/12/31 11:20:21;;;;;;;2.88;2.58;;;12.40;99.90;;;;;;5027493;28;20060;-57
2021/12/31 11:22:46;;;;;;;4.43;3.35;;;12.40;99.90;;;;;;5027887;28;20410;-53
2021/12/31 11:25:19;;;;;;;5.00;2.72;;;12.40;99.90;;;;;;5028298;28;20100;-59
2021/12/31 11:27:47;;;;;;;3.00;2.60;;;12.50;99.90;;;;;;5023679;28;20112;-55
2021/12/31 11:30:31;;;;;;;4.28;2.85;;;12.50;99.90;;;;;;5028355;28;20027;-55
2021/12/31 11:33:17;;;;;;;6.30;2.65;;;12.50;99.90;;;;;;5001659;28;20029;-55
2021/12/31 11:36:00;;;;;;;3.20;2.70;;;12.50;99.90;;;;;;5019998;28;20495;-53
2021/12/31 11:38:25;;;;;;;4.13;2.70;;;12.50;99.90;;;;;;5027537;28;20111;-50
2021/12/31 11:41:11;;;;;;;8.35;3.28;;;12.50;99.90;;;;;;5029025;28;20070;-55
2021/12/31 11:43:41;;;;;;;3.83;2.83;;;12.50;99.90;;;;;;5026845;28;20040;-53
2021/12/31 11:46:12;;;;;;;5.82;2.72;;;12.50;99.90;;;;;;5024648;28;20038;-52
2021/12/31 11:48:52;;;;;;;3.13;2.80;;;12.50;99.90;;;;;;5028301;28;20036;-51
2021/12/31 11:51:35;;;;;;;3.13;2.85;;;12.50;99.90;;;;;;5027266;28;20079;-49
2021/12/31 11:54:00;;;;;;;5.07;3.08;;;12.50;99.90;;;;;;5025991;28;20026;-49
2021/12/31 11:56:45;;;;;;;6.13;3.35;;;12.50;99.90;;;;;;5028871;28;20030;-49
2021/12/31 11:59:14;;;;;;;5.18;3.28;;;12.50;99.90;;;;;;5026774;28;20052;-53
2021/12/31 12:01:48;;;;;;;4.05;3.08;;;12.50;99.90;;;;;;5028843;28;20418;-53
2021/12/31 12:04:32;;;;;;;3.65;3.10;;;12.40;99.90;;;;;;5026784;28;20065;-55
2021/12/31 12:07:10;;;;;;;3.67;3.28;;;12.40;99.90;;;;;;5027786;28;20110;-49
2021/12/31 12:09:35;;;;;;;5.35;3.10;;;12.30;99.90;;;;;;5026667;28;20029;-52
2021/12/31 12:12:14;;;;;;;4.65;3.55;;;12.30;99.90;;;;;;5027540;28;20018;-49
2021/12/31 12:14:49;;;;;;;4.25;3.88;;;12.20;99.90;;;;;;5026882;28;20034;-50
2021/12/31 12:17:17;;;;;;;8.07;4.25;;;12.10;99.90;;;;;;5025601;28;20032;-48
2021/12/31 12:19:52;;;;;;;5.63;4.10;;;12.00;99.90;;;;;;5027270;28;20022;-48
2021/12/31 12:22:33;;;;;;;5.32;4.45;;;12.00;99.90;;;;;;5026285;28;20742;-50
2021/12/31 12:25:00;;;;;;;9.13;4.90;;;11.90;99.90;;;;;;5028019;28;20104;-50
2021/12/31 12:27:26;;;;;;;5.45;4.95;;;11.90;99.90;;;;;;5019101;28;20037;-53
2021/12/31 12:29:54;;;;;;;7.70;4.75;;;11.80;99.90;;;;;;5019104;28;20460;-52
2021/12/31 12:32:52;;;;;;;6.68;5.13;;;11.80;99.90;;;;;;5028518;28;20060;-52
2021/12/31 12:35:19;;;;;;;4.78;4.38;;;11.80;99.90;;;;;;5020924;28;20080;-54
2021/12/31 12:37:58;;;;;;;4.75;4.28;;;11.70;99.90;;;;;;5026930;28;20480;-49
2021/12/31 12:40:46;;;;;;;8.77;5.43;;;11.70;99.90;;;;;;5024318;28;20041;-52
2021/12/31 12:43:22;;;;;;;5.45;4.95;;;11.70;99.90;;;;;;5025649;28;20431;-51
2021/12/31 12:45:51;;;;;;;;;;;11.70;99.90;;;;;;5028538;28;20487;-51
2021/12/31 12:48:27;;;;;;;7.35;5.05;;;11.70;99.90;;;;;;5027689;28;19989;-51
2021/12/31 12:50:53;;;;;;;5.93;5.32;;;11.70;99.90;;;;;;5028162;28;20025;-55
2021/12/31 12:53:23;;;;;;;6.38;5.32;;;11.60;99.90;;;;;;5028371;28;20071;-55
2021/12/31 12:55:49;;;;;;;6.13;5.45;;;11.60;99.90;;;;;;5019449;28;20026;-52
2021/12/31 12:58:23;;;;;;;6.57;5.90;;;11.60;99.90;;;;;;5027479;28;20018;-55
2021/12/31 13:00:54;;;;;;;9.15;5.85;;;11.60;99.90;;;;;;5024213;28;20465;-54